createdAt,value
2022-11-19T00:10:21.194Z,97170
2022-11-19T00:22:21.192Z,97170
2022-11-19T00:34:21.199Z,97160
2022-11-19T00:46:21.193Z,97160
2022-11-19T00:58:21.275Z,97160
2022-11-19T01:10:21.203Z,97160
2022-11-19T01:22:21.197Z,97170
2022-11-19T01:34:21.195Z,97170
2022-11-19T01:46:21.290Z,97160
2022-11-19T01:58:21.299Z,97170
2022-11-19T02:10:21.312Z,97180
2022-11-19T02:22:21.262Z,97200
2022-11-19T02:34:21.197Z,97200
2022-11-19T02:46:21.188Z,97200
2022-11-19T02:58:21.192Z,97200
2022-11-19T03:10:21.187Z,97200
2022-11-19T03:22:21.192Z,97200
2022-11-19T03:34:21.300Z,97210
2022-11-19T03:46:21.196Z,97200
2022-11-19T03:58:21.310Z,97220
2022-11-19T04:10:21.203Z,97220
2022-11-19T04:22:21.272Z,97210
2022-11-19T04:34:21.195Z,97230
2022-11-19T04:46:21.185Z,97240
2022-11-19T04:58:21.302Z,97250
2022-11-19T05:10:21.278Z,97250
2022-11-19T05:22:21.196Z,97240
2022-11-19T05:34:21.189Z,97260
2022-11-19T05:46:21.257Z,97270
2022-11-19T05:58:21.190Z,97280
2022-11-19T06:10:21.310Z,97300
2022-11-19T06:22:21.217Z,97300
2022-11-19T06:34:21.198Z,97280
2022-11-19T06:46:21.208Z,97300
2022-11-19T06:58:21.200Z,97320
2022-11-19T07:10:21.200Z,97350
2022-11-19T07:22:21.288Z,97340
2022-11-19T07:34:21.196Z,97360
2022-11-19T07:46:21.196Z,97360
2022-11-19T07:58:21.304Z,97360
2022-11-19T08:10:21.190Z,97370
2022-11-19T08:22:21.292Z,97400
2022-11-19T08:34:21.517Z,97400
2022-11-19T08:46:21.316Z,97410
2022-11-19T08:58:21.231Z,97430
2022-11-19T09:10:21.200Z,97430
2022-11-19T09:22:21.193Z,97440
2022-11-19T09:34:21.553Z,97440
2022-11-19T09:46:21.194Z,97460
2022-11-19T09:58:21.185Z,97470
2022-11-19T10:10:21.185Z,97470
2022-11-19T10:22:21.280Z,97490
2022-11-19T10:34:21.247Z,97490
2022-11-19T10:46:21.186Z,97490
2022-11-19T10:58:21.277Z,97480
2022-11-19T11:10:21.241Z,97490
2022-11-19T11:22:21.262Z,97500
2022-11-19T11:34:21.189Z,97490
2022-11-19T11:46:21.193Z,97490
2022-11-19T11:58:21.192Z,97500
2022-11-19T12:10:21.217Z,97500
2022-11-19T12:22:21.303Z,97490
2022-11-19T12:34:21.262Z,97490
2022-11-19T12:46:21.205Z,97500
2022-11-19T12:58:21.299Z,97480
2022-11-19T13:10:21.235Z,97490
2022-11-19T13:22:21.268Z,97490
2022-11-19T13:34:21.224Z,97500
2022-11-19T13:46:21.257Z,97500
2022-11-19T13:58:21.314Z,97520
2022-11-19T14:10:21.264Z,97520
2022-11-19T14:22:21.267Z,97530
2022-11-19T14:34:21.193Z,97520
2022-11-19T14:46:21.280Z,97540
2022-11-19T14:58:21.298Z,97530
2022-11-19T15:10:21.190Z,97530
2022-11-19T15:22:21.286Z,97540
2022-11-19T15:34:21.206Z,97530
2022-11-19T15:46:22.922Z,97540
2022-11-19T15:58:21.278Z,97550
2022-11-19T16:10:21.194Z,97550
2022-11-19T16:22:21.272Z,97550
2022-11-19T16:34:21.536Z,97560
2022-11-19T16:46:21.289Z,97550
2022-11-19T16:58:21.313Z,97550
2022-11-19T17:10:24.123Z,97550
2022-11-19T17:22:21.193Z,97570
2022-11-19T17:34:21.513Z,97580
2022-11-19T17:46:21.191Z,97580
2022-11-19T17:58:21.194Z,97570
2022-11-19T18:10:21.214Z,97590
2022-11-19T18:22:21.301Z,97600
2022-11-19T18:34:21.209Z,97600
2022-11-19T18:46:21.213Z,97610
2022-11-19T18:58:21.268Z,97620
2022-11-19T19:10:21.195Z,97600
2022-11-19T19:22:21.191Z,97610
2022-11-19T19:34:21.230Z,97600
2022-11-19T19:46:21.204Z,97600
2022-11-19T19:58:25.241Z,97590
2022-11-19T20:10:21.303Z,97590
2022-11-19T20:22:21.280Z,97610
2022-11-19T20:34:21.233Z,97610
2022-11-19T20:46:21.298Z,97620
2022-11-19T20:58:21.282Z,97620
2022-11-19T21:10:21.307Z,97620
2022-11-19T21:22:21.260Z,97630
2022-11-19T21:34:21.202Z,97610
2022-11-19T21:46:21.475Z,97600
2022-11-19T21:58:21.292Z,97600
2022-11-19T22:10:21.273Z,97590
2022-11-19T22:22:21.306Z,97590
2022-11-19T22:34:21.201Z,97580
2022-11-19T22:46:21.252Z,97580
2022-11-19T22:58:21.338Z,97570
2022-11-19T23:10:21.307Z,97590
2022-11-19T23:22:21.290Z,97580
2022-11-19T23:34:21.280Z,97570
2022-11-19T23:46:21.568Z,97560
2022-11-19T23:58:21.300Z,97550
